createdAt,value
2017-12-07T00:00:45.669Z,0
2017-12-07T00:01:54.482Z,0
2017-12-07T00:03:03.287Z,0
2017-12-07T00:04:12.110Z,0
2017-12-07T00:05:20.923Z,0
2017-12-07T00:06:29.731Z,0
2017-12-07T00:07:38.538Z,0
2017-12-07T00:08:47.077Z,0
2017-12-07T00:09:55.883Z,0
2017-12-07T00:11:04.692Z,0
2017-12-07T00:12:13.227Z,0
2017-12-07T00:13:22.033Z,0
2017-12-07T00:14:30.847Z,0
2017-12-07T00:15:39.387Z,0
2017-12-07T00:16:47.930Z,0
2017-12-07T00:17:57.000Z,0
2017-12-07T00:19:05.805Z,0
2017-12-07T00:20:14.609Z,0
2017-12-07T00:21:23.419Z,0
2017-12-07T00:22:31.951Z,0
2017-12-07T00:23:40.489Z,0
2017-12-07T00:24:49.025Z,0
2017-12-07T00:25:57.829Z,0
2017-12-07T00:27:07.169Z,0
2017-12-07T00:28:15.710Z,0
2017-12-07T00:29:24.782Z,0
2017-12-07T00:30:33.597Z,0
2017-12-07T00:31:42.135Z,0
2017-12-07T00:32:50.675Z,0
2017-12-07T00:33:59.483Z,0
2017-12-07T00:35:08.018Z,0
2017-12-07T00:36:16.562Z,0
2017-12-07T00:37:26.164Z,0
2017-12-07T00:38:34.705Z,0
2017-12-07T00:39:43.388Z,0
2017-12-07T00:40:51.937Z,0
2017-12-07T00:42:01.015Z,0
2017-12-07T00:43:10.090Z,0
2017-12-07T00:44:18.897Z,0
2017-12-07T00:45:27.700Z,0
2017-12-07T00:46:36.242Z,0
2017-12-07T00:47:45.321Z,0
2017-12-07T00:48:53.856Z,0
2017-12-07T00:50:02.396Z,0
2017-12-07T00:51:11.201Z,0
2017-12-07T00:52:23.120Z,0
2017-12-07T00:53:31.665Z,0
2017-12-07T00:54:40.471Z,0
2017-12-07T00:55:49.809Z,0
2017-12-07T00:56:59.662Z,0
2017-12-07T00:58:08.199Z,0
2017-12-07T00:59:17.274Z,0
2017-12-07T01:00:25.815Z,0
2017-12-07T01:01:34.623Z,0
2017-12-07T01:02:43.439Z,0
2017-12-07T01:03:52.246Z,0
2017-12-07T01:05:01.322Z,0
2017-12-07T01:06:10.127Z,0
2017-12-07T01:07:18.933Z,0
2017-12-07T01:08:27.743Z,0
2017-12-07T01:09:36.551Z,0
2017-12-07T01:10:45.632Z,0
2017-12-07T01:11:54.168Z,0
2017-12-07T01:13:02.975Z,0
2017-12-07T01:14:11.513Z,0
2017-12-07T01:15:20.314Z,0
2017-12-07T01:16:29.119Z,0
2017-12-07T01:17:37.657Z,0
2017-12-07T01:18:46.198Z,0
2017-12-07T01:19:54.999Z,0
2017-12-07T01:21:03.807Z,0
2017-12-07T01:22:12.343Z,0
2017-12-07T01:23:21.161Z,0
2017-12-07T01:24:29.701Z,0
2017-12-07T01:25:38.504Z,0
2017-12-07T01:26:47.309Z,0
2017-12-07T01:27:56.117Z,0
2017-12-07T01:29:04.928Z,0
2017-12-07T01:30:13.732Z,0
2017-12-07T01:31:22.534Z,0
2017-12-07T01:32:31.069Z,0
2017-12-07T01:33:39.606Z,0
2017-12-07T01:34:48.414Z,0
2017-12-07T01:35:56.954Z,0
2017-12-07T01:37:05.493Z,0
2017-12-07T01:38:14.297Z,0
2017-12-07T01:39:23.105Z,0
2017-12-07T01:40:31.908Z,0
2017-12-07T01:41:40.711Z,0
2017-12-07T01:42:49.250Z,0
2017-12-07T01:43:58.058Z,0
2017-12-07T01:45:06.861Z,0
2017-12-07T01:46:15.933Z,0
2017-12-07T01:47:24.739Z,0
2017-12-07T01:48:33.282Z,0
2017-12-07T01:49:42.358Z,0
2017-12-07T01:50:51.696Z,0
2017-12-07T01:52:00.501Z,0
2017-12-07T01:53:09.574Z,0
2017-12-07T01:54:18.115Z,0
2017-12-07T01:55:26.920Z,0
2017-12-07T01:56:35.996Z,0
2017-12-07T01:57:44.532Z,0
2017-12-07T01:58:53.339Z,0
2017-12-07T02:00:01.884Z,0
2017-12-07T02:01:10.413Z,0
2017-12-07T02:02:18.952Z,0
2017-12-07T02:03:27.494Z,0
2017-12-07T02:04:36.298Z,0
2017-12-07T02:05:44.838Z,0
2017-12-07T02:06:53.907Z,0
2017-12-07T02:08:02.722Z,0
2017-12-07T02:09:11.805Z,0
2017-12-07T02:10:20.885Z,0
2017-12-07T02:11:29.689Z,0
2017-12-07T02:12:38.226Z,0
2017-12-07T02:13:47.033Z,0
2017-12-07T02:14:55.572Z,0
2017-12-07T02:16:04.111Z,0
2017-12-07T02:17:12.648Z,0
2017-12-07T02:18:21.190Z,0
2017-12-07T02:19:29.998Z,0
2017-12-07T02:20:38.536Z,0
2017-12-07T02:21:47.071Z,0
2017-12-07T02:22:55.883Z,0
2017-12-07T02:24:04.980Z,0
2017-12-07T02:25:14.057Z,0
2017-12-07T02:26:22.595Z,0
2017-12-07T02:27:31.135Z,0
2017-12-07T02:28:40.208Z,0
2017-12-07T02:29:49.280Z,0
2017-12-07T02:30:58.352Z,0
2017-12-07T02:32:07.425Z,0
2017-12-07T02:33:16.235Z,0
2017-12-07T02:34:25.037Z,0
2017-12-07T02:35:33.853Z,0
2017-12-07T02:36:42.391Z,0
2017-12-07T02:37:51.197Z,0
2017-12-07T02:39:00.003Z,0
2017-12-07T02:40:08.806Z,0
2017-12-07T02:41:17.347Z,0
2017-12-07T02:42:26.153Z,0
2017-12-07T02:43:35.238Z,0
2017-12-07T02:44:44.043Z,0
2017-12-07T02:45:52.849Z,0
2017-12-07T02:47:01.653Z,0
2017-12-07T02:48:10.466Z,0
2017-12-07T02:49:19.004Z,0
2017-12-07T02:50:27.811Z,0
2017-12-07T02:51:36.623Z,0
2017-12-07T02:52:45.428Z,0
2017-12-07T02:53:54.498Z,0
2017-12-07T02:55:03.306Z,0
2017-12-07T02:56:12.382Z,0
2017-12-07T02:57:21.725Z,0
2017-12-07T02:58:30.796Z,0
2017-12-07T02:59:39.611Z,0
2017-12-07T03:00:48.148Z,0
2017-12-07T03:01:56.952Z,0
2017-12-07T03:03:05.487Z,0
2017-12-07T03:04:14.560Z,0
2017-12-07T03:05:23.631Z,0
2017-12-07T03:06:32.175Z,0
2017-12-07T03:07:40.714Z,0
2017-12-07T03:08:49.519Z,0
2017-12-07T03:09:58.588Z,0
2017-12-07T03:11:07.125Z,0
2017-12-07T03:12:16.202Z,0
2017-12-07T03:13:25.276Z,0
2017-12-07T03:14:33.814Z,0
2017-12-07T03:15:42.613Z,0
2017-12-07T03:16:51.415Z,0
2017-12-07T03:17:59.953Z,0
2017-12-07T03:19:09.025Z,0
2017-12-07T03:20:17.566Z,0
2017-12-07T03:21:26.374Z,0
2017-12-07T03:22:34.913Z,0
2017-12-07T03:23:43.719Z,0
2017-12-07T03:24:52.531Z,0
2017-12-07T03:26:01.328Z,0
2017-12-07T03:27:09.866Z,0
2017-12-07T03:28:19.208Z,0
2017-12-07T03:29:28.016Z,0
2017-12-07T03:30:36.823Z,0
2017-12-07T03:31:45.630Z,0
2017-12-07T03:32:54.439Z,0
2017-12-07T03:34:02.977Z,0
2017-12-07T03:35:11.518Z,0
2017-12-07T03:36:20.323Z,0
2017-12-07T03:37:29.394Z,0
2017-12-07T03:38:38.462Z,0
2017-12-07T03:39:46.999Z,0
2017-12-07T03:40:55.537Z,0
2017-12-07T03:42:04.343Z,0
2017-12-07T03:43:13.153Z,0
2017-12-07T03:44:21.964Z,0
2017-12-07T03:45:30.769Z,0
2017-12-07T03:46:39.573Z,0
2017-12-07T03:47:48.109Z,0
2017-12-07T03:48:56.914Z,0
2017-12-07T03:50:05.992Z,0
2017-12-07T03:51:14.528Z,0
2017-12-07T03:52:23.595Z,0
2017-12-07T03:53:32.401Z,0
2017-12-07T03:54:41.204Z,0
2017-12-07T03:55:49.739Z,0
2017-12-07T03:56:58.276Z,0
2017-12-07T03:58:07.402Z,0
2017-12-07T03:59:16.480Z,0
2017-12-07T04:00:25.295Z,0
2017-12-07T04:01:34.365Z,0
2017-12-07T04:02:43.437Z,0
2017-12-07T04:03:52.242Z,0
2017-12-07T04:05:01.316Z,0
2017-12-07T04:06:10.122Z,0
2017-12-07T04:07:18.662Z,0
2017-12-07T04:08:27.469Z,0
2017-12-07T04:09:36.271Z,0
2017-12-07T04:10:44.811Z,0
2017-12-07T04:11:54.158Z,0
2017-12-07T04:13:02.963Z,0
2017-12-07T04:14:11.767Z,0
2017-12-07T04:15:20.837Z,0
2017-12-07T04:16:29.703Z,0
2017-12-07T04:17:38.241Z,0
2017-12-07T04:18:47.044Z,0
2017-12-07T04:19:55.853Z,0
2017-12-07T04:21:04.925Z,0
2017-12-07T04:22:13.734Z,0
2017-12-07T04:23:22.270Z,0
2017-12-07T04:24:31.073Z,0
2017-12-07T04:25:39.874Z,0
2017-12-07T04:26:48.681Z,0
2017-12-07T04:27:57.764Z,0
2017-12-07T04:29:06.835Z,0
2017-12-07T04:30:16.173Z,0
2017-12-07T04:31:25.248Z,0
2017-12-07T04:32:33.785Z,0
2017-12-07T04:33:42.323Z,0
2017-12-07T04:34:51.673Z,0
2017-12-07T04:36:00.478Z,0
2017-12-07T04:37:09.018Z,0
2017-12-07T04:38:17.822Z,0
2017-12-07T04:39:26.627Z,0
2017-12-07T04:40:35.430Z,0
2017-12-07T04:41:44.233Z,0
2017-12-07T04:42:52.829Z,0
2017-12-07T04:44:01.580Z,0
2017-12-07T04:45:10.114Z,0
2017-12-07T04:46:18.916Z,0
2017-12-07T04:47:27.721Z,0
2017-12-07T04:48:36.794Z,0
2017-12-07T04:49:45.330Z,0
2017-12-07T04:50:54.407Z,0
2017-12-07T04:52:02.944Z,0
2017-12-07T04:53:11.746Z,0
2017-12-07T04:54:20.282Z,0
2017-12-07T04:55:29.090Z,0
2017-12-07T04:56:38.162Z,0
2017-12-07T04:57:46.963Z,0
2017-12-07T04:58:55.767Z,0
2017-12-07T05:00:04.839Z,0
2017-12-07T05:01:13.376Z,0
2017-12-07T05:02:22.180Z,0
2017-12-07T05:03:31.259Z,0
2017-12-07T05:04:39.793Z,0
2017-12-07T05:05:48.864Z,0
2017-12-07T05:06:57.672Z,0
2017-12-07T05:08:06.741Z,0
2017-12-07T05:09:15.816Z,0
2017-12-07T05:10:24.618Z,0
2017-12-07T05:11:33.422Z,0
2017-12-07T05:12:41.962Z,0
2017-12-07T05:13:51.035Z,0
2017-12-07T05:15:00.109Z,0
2017-12-07T05:16:08.919Z,0
2017-12-07T05:17:17.454Z,0
2017-12-07T05:18:26.255Z,0
2017-12-07T05:19:35.062Z,0
2017-12-07T05:20:43.863Z,0
2017-12-07T05:21:52.399Z,0
2017-12-07T05:23:01.205Z,0
2017-12-07T05:24:09.743Z,0
2017-12-07T05:25:18.543Z,0
2017-12-07T05:26:27.080Z,0
2017-12-07T05:27:36.151Z,0
2017-12-07T05:28:44.689Z,0
2017-12-07T05:29:53.228Z,0
2017-12-07T05:31:02.304Z,0
2017-12-07T05:32:11.109Z,0
2017-12-07T05:33:19.915Z,0
2017-12-07T05:34:28.452Z,0
2017-12-07T05:35:36.989Z,0
2017-12-07T05:36:45.528Z,0
2017-12-07T05:37:54.599Z,0
2017-12-07T05:39:03.410Z,0
2017-12-07T05:40:12.484Z,0
2017-12-07T05:41:21.025Z,0
2017-12-07T05:42:29.824Z,0
2017-12-07T05:43:38.629Z,0
2017-12-07T05:44:47.484Z,0
2017-12-07T05:45:56.296Z,0
2017-12-07T05:47:05.100Z,0
2017-12-07T05:48:14.185Z,0
2017-12-07T05:49:22.989Z,0
2017-12-07T05:50:32.328Z,0
2017-12-07T05:51:40.865Z,0
2017-12-07T05:52:49.407Z,0
2017-12-07T05:53:58.485Z,0
2017-12-07T05:55:07.292Z,0
2017-12-07T05:56:15.830Z,0
2017-12-07T05:57:24.636Z,0
2017-12-07T05:58:33.178Z,0
2017-12-07T05:59:41.714Z,0
2017-12-07T06:00:50.787Z,0
2017-12-07T06:01:59.324Z,0
2017-12-07T06:03:07.861Z,0
2017-12-07T06:04:16.671Z,0
2017-12-07T06:05:25.481Z,0
2017-12-07T06:06:34.286Z,0
2017-12-07T06:07:42.821Z,0
2017-12-07T06:08:51.359Z,0
2017-12-07T06:09:59.897Z,0
2017-12-07T06:11:08.697Z,0
2017-12-07T06:12:17.236Z,0
2017-12-07T06:13:25.770Z,0
2017-12-07T06:14:34.308Z,0
2017-12-07T06:15:42.843Z,0
2017-12-07T06:16:51.645Z,0
2017-12-07T06:18:00.182Z,0
2017-12-07T06:19:08.990Z,0
2017-12-07T06:20:18.061Z,0
2017-12-07T06:21:27.175Z,0
2017-12-07T06:22:35.670Z,0
2017-12-07T06:23:44.208Z,0
2017-12-07T06:24:53.014Z,0
2017-12-07T06:26:02.082Z,0
2017-12-07T06:27:10.892Z,0
2017-12-07T06:28:20.034Z,0
2017-12-07T06:29:28.833Z,0
2017-12-07T06:30:37.643Z,0
2017-12-07T06:31:46.713Z,0
2017-12-07T06:32:55.519Z,0
2017-12-07T06:34:04.055Z,0
2017-12-07T06:35:12.863Z,0
2017-12-07T06:36:21.666Z,0
2017-12-07T06:37:30.206Z,0
2017-12-07T06:38:38.741Z,0
2017-12-07T06:39:47.282Z,0
2017-12-07T06:40:56.359Z,0
2017-12-07T06:42:05.167Z,0
2017-12-07T06:43:13.982Z,0
2017-12-07T06:44:22.797Z,0
2017-12-07T06:45:31.603Z,0
2017-12-07T06:46:40.406Z,0
2017-12-07T06:47:48.940Z,0
2017-12-07T06:48:58.012Z,0
2017-12-07T06:50:06.546Z,0
2017-12-07T06:51:15.083Z,0
2017-12-07T06:52:23.617Z,4
2017-12-07T06:53:32.156Z,4
2017-12-07T06:54:41.235Z,0
2017-12-07T06:55:50.041Z,4
2017-12-07T06:56:58.576Z,4
2017-12-07T06:58:07.863Z,0
2017-12-07T06:59:17.217Z,4
2017-12-07T07:00:25.755Z,4
2017-12-07T07:01:34.289Z,8
2017-12-07T07:02:43.361Z,8
2017-12-07T07:03:52.161Z,12
2017-12-07T07:05:00.698Z,16
2017-12-07T07:06:09.239Z,16
2017-12-07T07:07:17.781Z,16
2017-12-07T07:08:26.851Z,24
2017-12-07T07:09:35.385Z,28
2017-12-07T07:10:44.192Z,32
2017-12-07T07:11:53.006Z,40
2017-12-07T07:13:01.813Z,44
2017-12-07T07:14:10.631Z,56
2017-12-07T07:15:19.426Z,60
2017-12-07T07:16:27.966Z,112
2017-12-07T07:17:36.766Z,144
2017-12-07T07:18:45.299Z,168
2017-12-07T07:19:54.569Z,168
2017-12-07T07:21:03.383Z,180
2017-12-07T07:22:11.920Z,200
2017-12-07T07:23:20.725Z,216
2017-12-07T07:24:30.113Z,208
2017-12-07T07:25:38.615Z,204
2017-12-07T07:26:47.689Z,212
2017-12-07T07:27:56.228Z,228
2017-12-07T07:29:05.299Z,256
2017-12-07T07:30:14.736Z,272
2017-12-07T07:31:23.272Z,296
2017-12-07T07:32:32.344Z,308
2017-12-07T07:33:40.882Z,320
2017-12-07T07:34:49.425Z,364
2017-12-07T07:35:58.488Z,324
2017-12-07T07:37:07.026Z,320
2017-12-07T07:38:16.105Z,320
2017-12-07T07:39:25.169Z,352
2017-12-07T07:40:33.977Z,364
2017-12-07T07:41:43.051Z,400
2017-12-07T07:42:51.590Z,408
2017-12-07T07:44:00.949Z,420
2017-12-07T07:45:09.763Z,416
2017-12-07T07:46:18.837Z,408
2017-12-07T07:47:27.374Z,404
2017-12-07T07:48:36.448Z,436
2017-12-07T07:49:44.985Z,492
2017-12-07T07:50:54.292Z,452
2017-12-07T07:52:02.865Z,464
2017-12-07T07:53:11.669Z,492
2017-12-07T07:54:20.750Z,532
2017-12-07T07:55:29.554Z,536
2017-12-07T07:56:38.630Z,536
2017-12-07T07:57:47.709Z,544
2017-12-07T07:58:56.360Z,588
2017-12-07T08:00:05.170Z,628
2017-12-07T08:01:13.976Z,656
2017-12-07T08:02:22.779Z,768
2017-12-07T08:03:31.861Z,808
2017-12-07T08:04:40.668Z,876
2017-12-07T08:05:49.386Z,756
2017-12-07T08:06:58.140Z,800
2017-12-07T08:08:07.016Z,860
2017-12-07T08:09:15.552Z,1108
2017-12-07T08:10:24.161Z,1200
2017-12-07T08:11:32.689Z,1148
2017-12-07T08:12:41.761Z,1132
2017-12-07T08:13:50.562Z,1336
2017-12-07T08:14:59.369Z,1492
2017-12-07T08:16:09.065Z,1412
2017-12-07T08:17:18.194Z,1352
2017-12-07T08:18:27.043Z,1348
2017-12-07T08:19:35.850Z,1552
2017-12-07T08:20:44.659Z,1704
2017-12-07T08:21:53.467Z,1948
2017-12-07T08:23:02.369Z,1760
2017-12-07T08:24:11.447Z,2028
2017-12-07T08:25:19.985Z,1880
2017-12-07T08:26:29.059Z,1668
2017-12-07T08:27:38.410Z,1660
2017-12-07T08:28:47.224Z,1768
2017-12-07T08:29:55.821Z,1832
2017-12-07T08:31:04.632Z,1712
2017-12-07T08:32:13.445Z,1700
2017-12-07T08:33:22.526Z,1636
2017-12-07T08:34:31.060Z,1572
2017-12-07T08:35:39.600Z,1548
2017-12-07T08:36:48.166Z,1616
2017-12-07T08:37:56.973Z,1628
2017-12-07T08:39:06.105Z,1588
2017-12-07T08:40:15.466Z,1512
2017-12-07T08:41:24.269Z,1544
2017-12-07T08:42:32.805Z,1528
2017-12-07T08:43:41.886Z,1576
2017-12-07T08:44:51.932Z,1588
2017-12-07T08:46:03.224Z,1492
2017-12-07T08:47:13.717Z,1544
2017-12-07T08:48:23.207Z,1540
2017-12-07T08:49:32.295Z,1536
2017-12-07T08:50:41.109Z,1512
2017-12-07T08:51:49.921Z,1528
2017-12-07T08:52:59.124Z,1676
2017-12-07T08:54:07.668Z,1612
2017-12-07T08:55:16.498Z,1780
2017-12-07T08:56:25.608Z,1984
2017-12-07T08:57:34.485Z,1916
2017-12-07T08:58:43.292Z,1972
2017-12-07T08:59:52.096Z,2088
2017-12-07T09:01:00.957Z,2084
2017-12-07T09:02:09.438Z,2124
2017-12-07T09:03:18.516Z,2128
2017-12-07T09:04:27.054Z,2268
2017-12-07T09:05:35.594Z,2284
2017-12-07T09:06:44.943Z,2176
2017-12-07T09:07:54.021Z,2116
2017-12-07T09:09:02.825Z,2156
2017-12-07T09:10:11.991Z,2188
2017-12-07T09:11:20.644Z,2108
2017-12-07T09:12:29.273Z,2212
2017-12-07T09:13:37.816Z,2456
2017-12-07T09:14:46.625Z,2588
2017-12-07T09:15:55.430Z,2584
2017-12-07T09:17:04.775Z,2752
2017-12-07T09:18:13.587Z,2648
2017-12-07T09:19:22.389Z,2716
2017-12-07T09:20:31.194Z,2952
2017-12-07T09:21:39.732Z,3280
2017-12-07T09:22:48.835Z,3512
2017-12-07T09:23:57.631Z,3832
2017-12-07T09:25:06.177Z,4184
2017-12-07T09:26:14.991Z,4196
2017-12-07T09:27:24.064Z,4272
2017-12-07T09:28:33.159Z,4124
2017-12-07T09:29:42.235Z,4292
2017-12-07T09:30:51.043Z,4108
2017-12-07T09:31:59.847Z,3744
2017-12-07T09:33:08.391Z,3564
2017-12-07T09:34:17.303Z,3716
2017-12-07T09:35:25.847Z,3396
2017-12-07T09:36:34.935Z,3464
2017-12-07T09:37:44.280Z,3700
2017-12-07T09:38:52.823Z,3344
2017-12-07T09:40:01.360Z,3360
2017-12-07T09:41:10.169Z,3052
2017-12-07T09:42:18.705Z,2800
2017-12-07T09:43:27.621Z,2804
2017-12-07T09:44:36.160Z,2756
2017-12-07T09:45:44.970Z,2884
2017-12-07T09:46:54.347Z,3292
2017-12-07T09:48:02.890Z,3408
2017-12-07T09:49:11.699Z,3348
2017-12-07T09:50:20.549Z,3612
2017-12-07T09:51:29.496Z,3840
2017-12-07T09:52:38.310Z,4004
2017-12-07T09:53:47.399Z,3860
2017-12-07T09:54:56.207Z,4032
2017-12-07T09:56:04.743Z,4120
2017-12-07T09:57:14.568Z,4256
2017-12-07T09:58:23.109Z,4440
2017-12-07T09:59:32.203Z,4840
2017-12-07T10:00:42.403Z,5032
2017-12-07T10:01:51.667Z,4516
2017-12-07T10:03:00.478Z,4004
2017-12-07T10:04:09.023Z,3588
2017-12-07T10:05:19.491Z,2988
2017-12-07T10:06:28.986Z,2868
2017-12-07T10:07:38.063Z,2676
2017-12-07T10:08:46.880Z,2724
2017-12-07T10:09:55.521Z,2776
2017-12-07T10:11:04.327Z,2184
2017-12-07T10:12:13.315Z,2336
2017-12-07T10:13:22.989Z,2116
2017-12-07T10:14:32.002Z,1840
2017-12-07T10:15:41.077Z,1860
2017-12-07T10:16:49.884Z,1596
2017-12-07T10:17:58.693Z,1508
2017-12-07T10:19:07.240Z,1388
2017-12-07T10:20:16.047Z,1520
2017-12-07T10:21:25.119Z,1516
2017-12-07T10:22:34.294Z,1444
2017-12-07T10:23:43.863Z,1384
2017-12-07T10:24:52.935Z,1652
2017-12-07T10:26:02.282Z,1552
2017-12-07T10:27:10.823Z,1308
2017-12-07T10:28:19.630Z,1228
2017-12-07T10:29:28.434Z,1400
2017-12-07T10:30:37.239Z,1616
2017-12-07T10:31:46.310Z,1732
2017-12-07T10:32:54.852Z,1912
2017-12-07T10:34:03.934Z,2420
2017-12-07T10:35:12.544Z,2432
2017-12-07T10:36:21.083Z,2848
2017-12-07T10:37:30.164Z,2688
2017-12-07T10:38:40.568Z,3204
2017-12-07T10:39:50.112Z,2792
2017-12-07T10:40:59.720Z,2272
2017-12-07T10:42:08.260Z,2328
2017-12-07T10:43:17.069Z,1788
2017-12-07T10:44:26.007Z,1880
2017-12-07T10:45:35.043Z,1680
2017-12-07T10:46:43.718Z,1696
2017-12-07T10:47:52.257Z,1716
2017-12-07T10:49:00.799Z,1852
2017-12-07T10:50:09.353Z,2608
2017-12-07T10:51:18.784Z,2460
2017-12-07T10:52:27.589Z,2728
2017-12-07T10:53:36.127Z,2656
2017-12-07T10:54:45.199Z,3320
2017-12-07T10:55:54.008Z,3488
2017-12-07T10:57:02.543Z,3592
2017-12-07T10:58:11.614Z,3752
2017-12-07T10:59:20.733Z,3576
2017-12-07T11:00:29.539Z,3284
2017-12-07T11:01:38.345Z,2880
2017-12-07T11:02:46.884Z,2456
2017-12-07T11:03:55.691Z,2488
2017-12-07T11:05:04.225Z,2596
2017-12-07T11:06:13.040Z,2128
2017-12-07T11:07:21.848Z,1972
2017-12-07T11:08:30.653Z,2156
2017-12-07T11:09:39.460Z,1796
2017-12-07T11:10:48.262Z,2024
2017-12-07T11:11:57.071Z,2008
2017-12-07T11:13:05.879Z,1800
2017-12-07T11:14:14.686Z,1524
2017-12-07T11:15:23.496Z,1604
2017-12-07T11:16:32.300Z,1720
2017-12-07T11:17:40.839Z,1488
2017-12-07T11:18:49.481Z,1428
2017-12-07T11:19:58.556Z,1268
2017-12-07T11:21:07.896Z,1528
2017-12-07T11:22:16.439Z,1532
2017-12-07T11:23:25.255Z,1296
2017-12-07T11:24:34.064Z,1308
2017-12-07T11:25:42.614Z,1380
2017-12-07T11:26:51.956Z,1224
2017-12-07T11:28:00.766Z,1104
2017-12-07T11:29:09.303Z,1012
2017-12-07T11:30:17.845Z,932
2017-12-07T11:31:26.384Z,916
2017-12-07T11:32:35.730Z,880
2017-12-07T11:33:44.533Z,836
2017-12-07T11:34:53.878Z,808
2017-12-07T11:36:02.688Z,728
2017-12-07T11:37:11.221Z,792
2017-12-07T11:38:19.757Z,1048
2017-12-07T11:39:28.565Z,1096
2017-12-07T11:40:37.392Z,1452
2017-12-07T11:41:45.980Z,1276
2017-12-07T11:42:54.522Z,1308
2017-12-07T11:44:03.062Z,1304
2017-12-07T11:45:12.185Z,1100
2017-12-07T11:46:20.991Z,1356
2017-12-07T11:47:29.526Z,1696
2017-12-07T11:48:38.071Z,1632
2017-12-07T11:49:47.190Z,1364
2017-12-07T11:50:56.816Z,1516
2017-12-07T11:52:05.903Z,1608
2017-12-07T11:53:14.447Z,1576
2017-12-07T11:54:23.267Z,1368
2017-12-07T11:55:31.813Z,1128
2017-12-07T11:56:40.625Z,1480
2017-12-07T11:57:49.437Z,1516
2017-12-07T11:58:57.983Z,1176
2017-12-07T12:00:06.795Z,1192
2017-12-07T12:01:15.878Z,1428
2017-12-07T12:02:24.960Z,1568
2017-12-07T12:03:34.038Z,1600
2017-12-07T12:04:42.582Z,1668
2017-12-07T12:05:51.384Z,1444
2017-12-07T12:06:59.919Z,1348
2017-12-07T12:08:08.456Z,1252
2017-12-07T12:09:17.265Z,1380
2017-12-07T12:10:25.804Z,1392
2017-12-07T12:11:34.613Z,1396
2017-12-07T12:12:43.150Z,1328
2017-12-07T12:13:52.490Z,1384
2017-12-07T12:15:01.047Z,1520
2017-12-07T12:16:09.586Z,1236
2017-12-07T12:17:18.709Z,1164
2017-12-07T12:18:27.247Z,1380
2017-12-07T12:19:35.786Z,1344
2017-12-07T12:20:44.430Z,1216
2017-12-07T12:21:53.606Z,1412
2017-12-07T12:23:02.144Z,1236
2017-12-07T12:24:10.954Z,1116
2017-12-07T12:25:19.500Z,1324
2017-12-07T12:26:28.308Z,1248
2017-12-07T12:27:37.120Z,1212
2017-12-07T12:28:45.930Z,1068
2017-12-07T12:29:54.731Z,1036
2017-12-07T12:31:03.538Z,1188
2017-12-07T12:32:12.074Z,1204
2017-12-07T12:33:21.150Z,1344
2017-12-07T12:34:29.688Z,1276
2017-12-07T12:35:38.501Z,964
2017-12-07T12:36:47.041Z,1396
2017-12-07T12:37:55.580Z,1316
2017-12-07T12:39:04.383Z,1440
2017-12-07T12:40:12.925Z,1192
2017-12-07T12:41:22.266Z,1064
2017-12-07T12:42:31.137Z,1120
2017-12-07T12:43:39.947Z,1260
2017-12-07T12:44:48.752Z,1364
2017-12-07T12:45:57.290Z,1224
2017-12-07T12:47:05.825Z,1176
2017-12-07T12:48:15.429Z,1128
2017-12-07T12:49:24.240Z,1004
2017-12-07T12:50:33.317Z,1496
2017-12-07T12:51:42.142Z,1184
2017-12-07T12:52:50.945Z,1048
2017-12-07T12:54:00.025Z,1136
2017-12-07T12:55:08.837Z,972
2017-12-07T12:56:18.178Z,1036
2017-12-07T12:57:26.982Z,972
2017-12-07T12:58:35.522Z,992
2017-12-07T12:59:44.332Z,956
2017-12-07T13:00:52.872Z,964
2017-12-07T13:02:01.409Z,936
2017-12-07T13:03:10.216Z,856
2017-12-07T13:04:19.290Z,796
2017-12-07T13:05:28.095Z,796
2017-12-07T13:06:36.899Z,868
2017-12-07T13:07:45.433Z,952
2017-12-07T13:08:54.520Z,1016
2017-12-07T13:10:03.594Z,1068
2017-12-07T13:11:12.402Z,1164
2017-12-07T13:12:20.942Z,1208
2017-12-07T13:13:29.742Z,1036
2017-12-07T13:14:38.814Z,1044
2017-12-07T13:15:47.354Z,1196
2017-12-07T13:16:56.466Z,1184
2017-12-07T13:18:05.275Z,1240
2017-12-07T13:19:14.352Z,1028
2017-12-07T13:20:23.693Z,916
2017-12-07T13:21:32.784Z,1044
2017-12-07T13:22:41.855Z,908
2017-12-07T13:23:50.696Z,896
2017-12-07T13:24:59.241Z,872
2017-12-07T13:26:07.778Z,748
2017-12-07T13:27:16.582Z,720
2017-12-07T13:28:25.655Z,732
2017-12-07T13:29:34.200Z,716
2017-12-07T13:30:43.271Z,636
2017-12-07T13:31:52.076Z,588
2017-12-07T13:33:00.881Z,512
2017-12-07T13:34:09.965Z,440
2017-12-07T13:35:19.035Z,448
2017-12-07T13:36:27.574Z,420
2017-12-07T13:37:36.377Z,468
2017-12-07T13:38:44.913Z,540
2017-12-07T13:39:53.723Z,496
2017-12-07T13:41:02.806Z,460
2017-12-07T13:42:11.613Z,432
2017-12-07T13:43:20.421Z,468
2017-12-07T13:44:28.962Z,500
2017-12-07T13:45:38.038Z,412
2017-12-07T13:46:46.844Z,436
2017-12-07T13:47:55.647Z,364
2017-12-07T13:49:04.720Z,372
2017-12-07T13:50:13.257Z,352
2017-12-07T13:51:22.059Z,336
2017-12-07T13:52:30.864Z,396
2017-12-07T13:53:39.401Z,380
2017-12-07T13:54:47.941Z,388
2017-12-07T13:55:56.480Z,440
2017-12-07T13:57:05.874Z,476
2017-12-07T13:58:14.677Z,532
2017-12-07T13:59:23.217Z,500
2017-12-07T14:00:32.022Z,480
2017-12-07T14:01:40.857Z,540
2017-12-07T14:02:49.406Z,488
2017-12-07T14:03:57.946Z,476
2017-12-07T14:05:06.753Z,384
2017-12-07T14:06:15.558Z,348
2017-12-07T14:07:24.364Z,328
2017-12-07T14:08:33.434Z,272
2017-12-07T14:09:42.240Z,276
2017-12-07T14:10:51.045Z,244
2017-12-07T14:11:59.584Z,248
2017-12-07T14:13:08.123Z,272
2017-12-07T14:14:16.929Z,356
2017-12-07T14:15:25.478Z,528
2017-12-07T14:16:34.304Z,588
2017-12-07T14:17:43.120Z,604
2017-12-07T14:19:21.409Z,500
2017-12-07T14:20:30.752Z,404
2017-12-07T14:21:39.563Z,312
2017-12-07T14:22:48.634Z,308
2017-12-07T14:23:57.176Z,292
2017-12-07T14:25:06.523Z,360
2017-12-07T14:26:15.330Z,360
2017-12-07T14:27:24.469Z,332
2017-12-07T14:28:33.276Z,312
2017-12-07T14:29:41.819Z,288
2017-12-07T14:30:50.359Z,300
2017-12-07T14:31:59.182Z,260
2017-12-07T14:33:07.718Z,268
2017-12-07T14:34:16.528Z,208
2017-12-07T14:35:25.334Z,240
2017-12-07T14:36:34.036Z,220
2017-12-07T14:37:42.845Z,220
2017-12-07T14:38:52.188Z,236
2017-12-07T14:40:00.992Z,204
2017-12-07T14:41:09.829Z,224
2017-12-07T14:42:18.649Z,184
2017-12-07T14:43:27.472Z,176
2017-12-07T14:44:36.001Z,164
2017-12-07T14:45:44.542Z,156
2017-12-07T14:46:53.883Z,132
2017-12-07T14:48:02.695Z,164
2017-12-07T14:49:11.237Z,128
2017-12-07T14:50:19.874Z,108
2017-12-07T14:51:28.676Z,96
2017-12-07T14:52:37.481Z,104
2017-12-07T14:53:46.021Z,96
2017-12-07T14:54:55.036Z,96
2017-12-07T14:56:03.574Z,88
2017-12-07T14:57:12.114Z,84
2017-12-07T14:58:21.459Z,68
2017-12-07T14:59:30.262Z,72
2017-12-07T15:00:38.804Z,60
2017-12-07T15:01:47.884Z,64
2017-12-07T15:02:56.692Z,60
2017-12-07T15:04:05.494Z,60
2017-12-07T15:05:14.461Z,56
2017-12-07T15:06:23.003Z,68
2017-12-07T15:07:31.809Z,72
2017-12-07T15:08:40.663Z,68
2017-12-07T15:09:49.473Z,72
2017-12-07T15:10:58.279Z,56
2017-12-07T15:12:06.822Z,64
2017-12-07T15:13:15.628Z,56
2017-12-07T15:14:24.763Z,56
2017-12-07T15:15:33.566Z,52
2017-12-07T15:16:42.370Z,48
2017-12-07T15:17:50.934Z,44
2017-12-07T15:18:59.473Z,40
2017-12-07T15:20:08.554Z,44
2017-12-07T15:21:17.096Z,44
2017-12-07T15:22:25.632Z,32
2017-12-07T15:23:34.467Z,28
2017-12-07T15:24:43.244Z,36
2017-12-07T15:25:52.056Z,36
2017-12-07T15:27:00.898Z,32
2017-12-07T15:28:09.714Z,28
2017-12-07T15:29:18.801Z,28
2017-12-07T15:30:27.337Z,24
2017-12-07T15:31:36.142Z,20
2017-12-07T15:32:44.680Z,16
2017-12-07T15:33:53.905Z,16
2017-12-07T15:35:02.978Z,12
2017-12-07T15:36:11.516Z,12
2017-12-07T15:37:20.596Z,8
2017-12-07T15:38:29.679Z,8
2017-12-07T15:39:38.567Z,4
2017-12-07T15:40:47.383Z,4
2017-12-07T15:41:55.919Z,4
2017-12-07T15:43:04.724Z,4
2017-12-07T15:44:13.528Z,4
2017-12-07T15:45:22.949Z,4
2017-12-07T15:46:31.470Z,4
2017-12-07T15:47:40.012Z,4
2017-12-07T15:48:48.556Z,0
2017-12-07T15:49:57.377Z,0
2017-12-07T15:51:06.454Z,0
2017-12-07T15:52:15.258Z,0
2017-12-07T15:53:24.065Z,0
2017-12-07T15:54:33.471Z,0
2017-12-07T15:55:42.011Z,0
2017-12-07T15:56:50.828Z,0
2017-12-07T15:57:59.889Z,0
2017-12-07T15:59:08.964Z,0
2017-12-07T16:00:17.536Z,0
2017-12-07T16:01:26.105Z,0
2017-12-07T16:02:34.644Z,0
2017-12-07T16:03:43.190Z,0
2017-12-07T16:04:51.998Z,0
2017-12-07T16:06:00.870Z,0
2017-12-07T16:07:09.956Z,0
2017-12-07T16:08:18.777Z,0
2017-12-07T16:09:27.592Z,0
2017-12-07T16:10:36.393Z,0
2017-12-07T16:11:44.935Z,0